createdAt,value
2018-12-03T00:00:10.696Z,0.00
2018-12-03T00:01:10.944Z,0.00
2018-12-03T00:03:15.159Z,0.00
2018-12-03T00:04:15.404Z,0.00
2018-12-03T00:06:19.612Z,0.00
2018-12-03T00:07:19.861Z,0.00
2018-12-03T00:09:24.042Z,0.00
2018-12-03T00:10:24.280Z,0.00
2018-12-03T00:12:28.485Z,0.00
2018-12-03T00:13:28.728Z,0.00
2018-12-03T00:15:32.951Z,0.00
2018-12-03T00:16:33.196Z,0.00
2018-12-03T00:18:26.311Z,0.00
2018-12-03T00:19:26.557Z,0.00
2018-12-03T00:21:30.762Z,0.00
2018-12-03T00:22:31.008Z,0.00
2018-12-03T00:24:35.188Z,0.00
2018-12-03T00:25:35.434Z,0.00
2018-12-03T00:27:39.631Z,0.00
2018-12-03T00:28:39.875Z,0.00
2018-12-03T00:30:44.048Z,0.00
2018-12-03T00:31:44.297Z,0.00
2018-12-03T00:33:48.509Z,0.00
2018-12-03T00:34:48.755Z,0.00
2018-12-03T00:36:52.967Z,0.00
2018-12-03T00:37:53.212Z,0.00
2018-12-03T00:39:57.399Z,0.00
2018-12-03T00:40:57.643Z,0.00
2018-12-03T00:43:01.863Z,0.00
2018-12-03T00:44:02.106Z,0.00
2018-12-03T00:46:06.291Z,0.00
2018-12-03T00:47:06.533Z,0.00
2018-12-03T00:48:59.692Z,0.00
2018-12-03T00:49:59.920Z,0.00
2018-12-03T00:52:04.128Z,0.00
2018-12-03T00:53:04.374Z,0.00
2018-12-03T00:55:08.560Z,0.00
2018-12-03T00:56:08.808Z,0.00
2018-12-03T00:58:13.021Z,0.00
2018-12-03T00:59:13.262Z,0.00
2018-12-03T01:01:17.457Z,0.00
2018-12-03T01:02:17.703Z,0.00
2018-12-03T01:04:21.904Z,0.00
2018-12-03T01:05:22.152Z,0.00
2018-12-03T01:07:26.388Z,0.00
2018-12-03T01:08:26.630Z,0.00
2018-12-03T01:10:30.824Z,0.00
2018-12-03T01:11:31.075Z,0.00
2018-12-03T01:13:35.301Z,0.00
2018-12-03T01:14:35.552Z,0.00
2018-12-03T01:16:39.728Z,0.00
2018-12-03T01:17:39.972Z,0.00
2018-12-03T01:19:44.192Z,0.00
2018-12-03T01:20:44.450Z,0.00
2018-12-03T01:22:48.653Z,0.00
2018-12-03T01:23:48.915Z,0.00
2018-12-03T01:25:53.087Z,0.00
2018-12-03T01:26:53.332Z,0.00
2018-12-03T01:28:46.489Z,0.00
2018-12-03T01:29:46.732Z,0.00
2018-12-03T01:31:50.910Z,0.00
2018-12-03T01:32:51.155Z,0.00
2018-12-03T01:34:55.369Z,0.00
2018-12-03T01:35:55.609Z,0.00
2018-12-03T01:37:59.797Z,0.00
2018-12-03T01:39:00.039Z,0.00
2018-12-03T01:41:04.241Z,0.00
2018-12-03T01:42:04.487Z,0.00
2018-12-03T01:44:08.699Z,0.00
2018-12-03T01:45:08.941Z,0.00
2018-12-03T01:47:13.119Z,0.00
2018-12-03T01:48:13.366Z,0.00
2018-12-03T01:50:39.756Z,0.00
2018-12-03T01:51:40.000Z,0.00
2018-12-03T01:53:44.190Z,0.00
2018-12-03T01:54:44.428Z,0.00
2018-12-03T01:56:48.645Z,0.00
2018-12-03T01:57:48.911Z,0.00
2018-12-03T01:59:53.081Z,0.00
2018-12-03T02:00:53.321Z,0.00
2018-12-03T02:02:57.506Z,0.00
2018-12-03T02:03:57.748Z,0.00
2018-12-03T02:06:01.967Z,0.00
2018-12-03T02:07:02.211Z,0.00
2018-12-03T02:08:55.322Z,0.00
2018-12-03T02:09:55.566Z,0.00
2018-12-03T02:11:59.772Z,0.00
2018-12-03T02:13:00.012Z,0.00
2018-12-03T02:15:04.218Z,0.00
2018-12-03T02:16:04.461Z,0.00
2018-12-03T02:18:08.639Z,0.00
2018-12-03T02:19:08.887Z,0.00
2018-12-03T02:21:13.081Z,0.00
2018-12-03T02:22:13.320Z,0.00
2018-12-03T02:24:17.506Z,0.00
2018-12-03T02:25:17.742Z,0.00
2018-12-03T02:27:21.955Z,0.00
2018-12-03T02:28:22.199Z,0.00
2018-12-03T02:30:37.487Z,0.00
2018-12-03T02:31:37.723Z,0.00
2018-12-03T02:33:41.910Z,0.00
2018-12-03T02:34:42.154Z,0.00
2018-12-03T02:36:46.359Z,0.00
2018-12-03T02:37:46.600Z,0.00
2018-12-03T02:39:50.810Z,0.00
2018-12-03T02:40:51.050Z,0.00
2018-12-03T02:42:55.221Z,0.00
2018-12-03T02:43:55.460Z,0.00
2018-12-03T02:45:59.679Z,0.00
2018-12-03T02:46:59.917Z,0.00
2018-12-03T02:48:53.039Z,0.00
2018-12-03T02:49:53.266Z,0.00
2018-12-03T02:51:57.469Z,0.00
2018-12-03T02:52:57.712Z,0.00
2018-12-03T02:55:01.949Z,0.00
2018-12-03T02:56:02.190Z,0.00
2018-12-03T02:58:06.401Z,0.00
2018-12-03T02:59:06.623Z,0.00
2018-12-03T03:01:10.827Z,0.00
2018-12-03T03:02:11.075Z,0.00
2018-12-03T03:04:15.257Z,0.00
2018-12-03T03:05:15.492Z,0.00
2018-12-03T03:07:19.702Z,0.00
2018-12-03T03:08:19.934Z,0.00
2018-12-03T03:10:24.146Z,0.00
2018-12-03T03:11:24.386Z,0.00
2018-12-03T03:13:28.562Z,0.00
2018-12-03T03:14:28.804Z,0.00
2018-12-03T03:16:33.007Z,0.00
2018-12-03T03:17:33.244Z,0.00
2018-12-03T03:19:37.426Z,0.00
2018-12-03T03:20:37.665Z,0.00
2018-12-03T03:22:52.962Z,0.00
2018-12-03T03:23:53.197Z,0.00
2018-12-03T03:25:57.400Z,0.00
2018-12-03T03:26:57.641Z,0.00
2018-12-03T03:28:50.751Z,0.00
2018-12-03T03:29:50.984Z,0.00
2018-12-03T03:31:55.191Z,0.00
2018-12-03T03:32:55.433Z,0.00
2018-12-03T03:34:59.614Z,0.00
2018-12-03T03:35:59.853Z,0.00
2018-12-03T03:38:04.063Z,0.00
2018-12-03T03:39:04.304Z,0.00
2018-12-03T03:41:08.508Z,0.00
2018-12-03T03:42:08.749Z,0.00
2018-12-03T03:44:12.930Z,0.00
2018-12-03T03:45:13.179Z,0.00
2018-12-03T03:47:17.413Z,0.00
2018-12-03T03:48:17.631Z,0.00
2018-12-03T03:50:21.817Z,0.00
2018-12-03T03:51:22.060Z,0.00
2018-12-03T03:53:26.271Z,0.00
2018-12-03T03:54:26.514Z,0.00
2018-12-03T03:56:30.743Z,0.00
2018-12-03T03:57:30.984Z,0.00
2018-12-03T03:59:35.168Z,0.00
2018-12-03T04:00:35.413Z,0.00
2018-12-03T04:02:51.960Z,0.00
2018-12-03T04:03:50.956Z,0.00
2018-12-03T04:05:55.166Z,0.00
2018-12-03T04:06:55.410Z,0.00
2018-12-03T04:08:48.532Z,0.00
2018-12-03T04:09:48.775Z,0.00
2018-12-03T04:11:52.983Z,0.00
2018-12-03T04:12:53.229Z,0.00
2018-12-03T04:14:57.410Z,0.00
2018-12-03T04:15:57.653Z,0.00
2018-12-03T04:18:01.864Z,0.00
2018-12-03T04:19:02.115Z,0.00
2018-12-03T04:21:06.322Z,0.00
2018-12-03T04:22:06.561Z,0.00
2018-12-03T04:24:10.743Z,0.00
2018-12-03T04:25:10.997Z,0.00
2018-12-03T04:27:15.201Z,0.00
2018-12-03T04:28:15.448Z,0.00
2018-12-03T04:30:30.711Z,0.00
2018-12-03T04:31:30.959Z,0.00
2018-12-03T04:33:35.173Z,0.00
2018-12-03T04:34:35.418Z,0.00
2018-12-03T04:36:39.635Z,0.00
2018-12-03T04:37:39.884Z,0.00
2018-12-03T04:39:44.061Z,0.00
2018-12-03T04:40:44.303Z,0.00
2018-12-03T04:42:48.501Z,0.00
2018-12-03T04:43:48.743Z,0.00
2018-12-03T04:46:04.050Z,0.00
2018-12-03T04:47:04.293Z,0.00
2018-12-03T04:48:57.393Z,0.00
2018-12-03T04:49:57.642Z,0.00
2018-12-03T04:52:02.863Z,0.00
2018-12-03T04:53:03.101Z,0.00
2018-12-03T04:55:07.285Z,0.00
2018-12-03T04:56:07.529Z,0.00
2018-12-03T04:58:11.735Z,0.00
2018-12-03T04:59:11.981Z,0.00
2018-12-03T05:01:16.190Z,0.00
2018-12-03T05:02:16.429Z,0.00
2018-12-03T05:04:20.601Z,0.00
2018-12-03T05:05:20.837Z,0.00
2018-12-03T05:07:25.046Z,0.00
2018-12-03T05:08:25.293Z,0.00
2018-12-03T05:10:29.490Z,0.00
2018-12-03T05:11:29.727Z,0.00
2018-12-03T05:13:33.936Z,0.00
2018-12-03T05:14:34.185Z,0.00
2018-12-03T05:16:38.375Z,0.00
2018-12-03T05:17:38.620Z,0.00
2018-12-03T05:19:42.837Z,0.00
2018-12-03T05:20:43.081Z,0.00
2018-12-03T05:22:47.301Z,0.00
2018-12-03T05:23:47.532Z,0.00
2018-12-03T05:25:51.716Z,0.00
2018-12-03T05:26:51.965Z,0.00
2018-12-03T05:28:45.110Z,0.00
2018-12-03T05:29:45.355Z,0.00
2018-12-03T05:31:49.569Z,0.00
2018-12-03T05:32:49.815Z,0.00
2018-12-03T05:34:54.010Z,0.00
2018-12-03T05:35:54.243Z,0.00
2018-12-03T05:37:58.465Z,0.00
2018-12-03T05:38:58.706Z,0.00
2018-12-03T05:41:02.890Z,0.00
2018-12-03T05:42:03.133Z,0.00
2018-12-03T05:44:07.351Z,0.00
2018-12-03T05:45:07.599Z,0.00
2018-12-03T05:47:11.829Z,0.00
2018-12-03T05:48:12.075Z,0.00
2018-12-03T05:50:16.264Z,0.00
2018-12-03T05:51:16.512Z,0.00
2018-12-03T05:53:20.712Z,0.00
2018-12-03T05:54:20.958Z,0.00
2018-12-03T05:56:25.138Z,0.00
2018-12-03T05:57:25.381Z,0.00
2018-12-03T05:59:29.637Z,0.00
2018-12-03T06:00:29.849Z,0.00
2018-12-03T06:02:34.059Z,0.00
2018-12-03T06:03:34.306Z,0.00
2018-12-03T06:05:38.989Z,0.00
2018-12-03T06:06:38.769Z,0.00
2018-12-03T06:08:32.956Z,0.00
2018-12-03T06:09:33.177Z,0.00
2018-12-03T06:11:38.923Z,0.00
2018-12-03T06:12:39.107Z,0.00
2018-12-03T06:14:43.800Z,0.00
2018-12-03T06:15:44.130Z,0.00
2018-12-03T06:17:48.767Z,0.00
2018-12-03T06:18:49.016Z,0.00
2018-12-03T06:20:54.690Z,0.00
2018-12-03T06:21:54.932Z,0.00
2018-12-03T06:23:59.150Z,0.00
2018-12-03T06:24:59.396Z,0.00
2018-12-03T06:27:03.576Z,0.00
2018-12-03T06:28:03.967Z,0.00
2018-12-03T06:30:08.179Z,0.00
2018-12-03T06:31:08.421Z,0.00
2018-12-03T06:33:12.630Z,0.00
2018-12-03T06:34:12.888Z,0.00
2018-12-03T06:36:17.049Z,0.00
2018-12-03T06:37:17.294Z,4.00
2018-12-03T06:39:21.505Z,4.00
2018-12-03T06:40:21.751Z,4.00
2018-12-03T06:42:25.927Z,8.00
2018-12-03T06:43:26.169Z,16.00
2018-12-03T06:45:30.381Z,20.00
2018-12-03T06:46:30.621Z,20.00
2018-12-03T06:48:23.761Z,28.00
2018-12-03T06:49:24.003Z,32.00
2018-12-03T06:51:28.201Z,40.00
2018-12-03T06:52:28.447Z,44.00
2018-12-03T06:54:32.658Z,64.00
2018-12-03T06:55:32.902Z,72.00
2018-12-03T06:57:37.093Z,96.00
2018-12-03T06:58:37.335Z,112.00
2018-12-03T07:00:41.538Z,148.00
2018-12-03T07:01:41.778Z,164.00
2018-12-03T07:03:45.982Z,208.00
2018-12-03T07:04:46.231Z,232.00
2018-12-03T07:06:50.425Z,272.00
2018-12-03T07:07:50.718Z,296.00
2018-12-03T07:09:55.169Z,356.00
2018-12-03T07:10:55.116Z,372.00
2018-12-03T07:12:59.295Z,364.00
2018-12-03T07:13:59.536Z,444.00
2018-12-03T07:16:03.740Z,576.00
2018-12-03T07:17:03.976Z,660.00
2018-12-03T07:18:57.113Z,800.00
2018-12-03T07:19:57.357Z,896.00
2018-12-03T07:22:01.537Z,1096.00
2018-12-03T07:23:01.787Z,1196.00
2018-12-03T07:25:05.989Z,1308.00
2018-12-03T07:26:06.234Z,1360.00
2018-12-03T07:28:10.401Z,1484.00
2018-12-03T07:29:10.646Z,1592.00
2018-12-03T07:31:14.860Z,1848.00
2018-12-03T07:32:15.102Z,1992.00
2018-12-03T07:34:19.313Z,2292.00
2018-12-03T07:35:19.555Z,2408.00
2018-12-03T07:37:23.726Z,2596.00
2018-12-03T07:38:23.971Z,2636.00
2018-12-03T07:40:28.179Z,2620.00
2018-12-03T07:41:28.424Z,2576.00
2018-12-03T07:43:32.606Z,2592.00
2018-12-03T07:44:32.851Z,2612.00
2018-12-03T07:46:37.060Z,2824.00
2018-12-03T07:47:37.291Z,3092.00
2018-12-03T07:49:41.530Z,2528.00
2018-12-03T07:50:41.773Z,2584.00
2018-12-03T07:52:45.948Z,2564.00
2018-12-03T07:53:46.192Z,2576.00
2018-12-03T07:55:50.399Z,3052.00
2018-12-03T07:56:50.636Z,3324.00
2018-12-03T07:58:43.754Z,3844.00
2018-12-03T07:59:44.002Z,3588.00
2018-12-03T08:01:48.207Z,3548.00
2018-12-03T08:02:48.449Z,3420.00
2018-12-03T08:05:03.751Z,2796.00
2018-12-03T08:06:03.995Z,2780.00
2018-12-03T08:08:19.276Z,2832.00
2018-12-03T08:09:19.518Z,3112.00
2018-12-03T08:11:23.726Z,2916.00
2018-12-03T08:12:23.972Z,3172.00
2018-12-03T08:14:28.146Z,1884.00
2018-12-03T08:15:28.391Z,1584.00
2018-12-03T08:17:32.606Z,1172.00
2018-12-03T08:18:32.853Z,948.00
2018-12-03T08:20:37.065Z,1008.00
2018-12-03T08:21:37.312Z,1040.00
2018-12-03T08:23:41.491Z,1716.00
2018-12-03T08:24:41.731Z,1864.00
2018-12-03T08:26:57.027Z,2044.00
2018-12-03T08:27:57.273Z,1920.00
2018-12-03T08:30:01.451Z,1112.00
2018-12-03T08:31:01.695Z,992.00
2018-12-03T08:33:05.919Z,772.00
2018-12-03T08:34:06.164Z,692.00
2018-12-03T08:36:21.465Z,920.00
2018-12-03T08:37:21.708Z,1204.00
2018-12-03T08:39:25.891Z,1812.00
2018-12-03T08:40:26.136Z,1780.00
2018-12-03T08:42:30.345Z,2136.00
2018-12-03T08:43:30.592Z,2348.00
2018-12-03T08:45:34.799Z,1752.00
2018-12-03T08:46:35.042Z,1340.00
2018-12-03T08:48:28.160Z,1656.00
2018-12-03T08:49:28.404Z,1872.00
2018-12-03T08:51:32.617Z,2172.00
2018-12-03T08:52:32.859Z,2704.00
2018-12-03T08:54:37.047Z,2336.00
2018-12-03T08:55:37.295Z,2852.00
2018-12-03T08:57:41.515Z,1736.00
2018-12-03T08:58:41.757Z,1964.00
2018-12-03T09:00:45.966Z,2340.00
2018-12-03T09:01:46.213Z,2836.00
2018-12-03T09:03:50.390Z,4060.00
2018-12-03T09:04:50.635Z,4528.00
2018-12-03T09:06:54.860Z,4040.00
2018-12-03T09:07:55.103Z,3896.00
2018-12-03T09:09:59.285Z,5792.00
2018-12-03T09:10:59.531Z,7028.00
2018-12-03T09:13:03.753Z,11700.00
2018-12-03T09:14:03.995Z,13896.00
2018-12-03T09:16:08.205Z,24448.00
2018-12-03T09:17:08.446Z,25312.00
2018-12-03T09:19:01.554Z,6660.00
2018-12-03T09:20:01.802Z,5988.00
2018-12-03T09:22:06.010Z,5536.00
2018-12-03T09:23:06.256Z,4536.00
2018-12-03T09:25:10.441Z,8400.00
2018-12-03T09:26:10.687Z,8668.00
2018-12-03T09:28:14.887Z,5036.00
2018-12-03T09:29:15.128Z,4524.00
2018-12-03T09:31:19.345Z,4804.00
2018-12-03T09:32:19.590Z,5432.00
2018-12-03T09:34:23.774Z,4724.00
2018-12-03T09:35:24.022Z,5488.00
2018-12-03T09:37:28.232Z,7348.00
2018-12-03T09:38:28.478Z,27648.00
2018-12-03T09:40:32.651Z,14376.00
2018-12-03T09:41:32.896Z,8540.00
2018-12-03T09:43:37.108Z,5668.00
2018-12-03T09:44:37.367Z,4932.00
2018-12-03T09:46:41.560Z,5972.00
2018-12-03T09:47:41.807Z,5364.00
2018-12-03T09:49:46.999Z,3828.00
2018-12-03T09:50:47.244Z,3752.00
2018-12-03T09:52:51.451Z,3940.00
2018-12-03T09:53:51.698Z,3828.00
2018-12-03T09:55:55.881Z,3208.00
2018-12-03T09:56:56.125Z,3264.00
2018-12-03T09:58:49.283Z,3176.00
2018-12-03T09:59:49.524Z,2740.00
2018-12-03T10:01:53.732Z,2300.00
2018-12-03T10:02:53.977Z,2280.00
2018-12-03T10:04:58.158Z,1856.00
2018-12-03T10:05:58.407Z,1716.00
2018-12-03T10:08:02.621Z,1956.00
2018-12-03T10:09:02.862Z,2204.00
2018-12-03T10:11:07.064Z,2708.00
2018-12-03T10:12:07.304Z,2776.00
2018-12-03T10:14:14.981Z,2608.00
2018-12-03T10:15:11.758Z,2340.00
2018-12-03T10:17:15.986Z,2176.00
2018-12-03T10:18:16.233Z,2280.00
2018-12-03T10:20:20.424Z,2504.00
2018-12-03T10:21:20.664Z,2308.00
2018-12-03T10:23:24.881Z,2748.00
2018-12-03T10:24:25.126Z,3172.00
2018-12-03T10:26:29.303Z,5644.00
2018-12-03T10:27:29.545Z,6400.00
2018-12-03T10:29:33.767Z,6232.00
2018-12-03T10:30:34.012Z,6072.00
2018-12-03T10:32:38.227Z,6472.00
2018-12-03T10:33:38.469Z,6808.00
2018-12-03T10:35:42.659Z,5436.00
2018-12-03T10:36:42.905Z,7248.00
2018-12-03T10:38:36.043Z,6616.00
2018-12-03T10:39:36.294Z,4860.00
2018-12-03T10:41:40.472Z,3872.00
2018-12-03T10:42:40.716Z,4296.00
2018-12-03T10:44:44.925Z,6484.00
2018-12-03T10:45:45.173Z,7144.00
2018-12-03T10:47:49.379Z,7168.00
2018-12-03T10:48:49.623Z,7044.00
2018-12-03T10:50:53.808Z,7088.00
2018-12-03T10:51:54.059Z,7280.00
2018-12-03T10:53:58.265Z,7524.00
2018-12-03T10:54:58.514Z,7624.00
2018-12-03T10:57:02.703Z,8028.00
2018-12-03T10:58:02.949Z,8124.00
2018-12-03T11:00:18.248Z,7584.00
2018-12-03T11:01:18.496Z,7424.00
2018-12-03T11:03:22.707Z,7000.00
2018-12-03T11:04:22.955Z,6888.00
2018-12-03T11:06:27.147Z,7140.00
2018-12-03T11:07:27.386Z,7404.00
2018-12-03T11:09:33.304Z,7620.00
2018-12-03T11:10:31.841Z,7208.00
2018-12-03T11:12:36.029Z,8516.00
2018-12-03T11:13:36.275Z,9972.00
2018-12-03T11:15:40.473Z,11872.00
2018-12-03T11:16:40.720Z,12968.00
2018-12-03T11:18:44.941Z,12536.00
2018-12-03T11:19:45.182Z,11344.00
2018-12-03T11:21:49.361Z,17664.00
2018-12-03T11:22:49.602Z,18976.00
2018-12-03T11:24:53.806Z,24928.00
2018-12-03T11:25:54.052Z,28128.00
2018-12-03T11:27:58.237Z,32000.00
2018-12-03T11:28:58.480Z,22304.00
2018-12-03T11:31:02.693Z,11340.00
2018-12-03T11:32:02.935Z,8928.00
2018-12-03T11:34:07.143Z,6440.00
2018-12-03T11:35:07.392Z,5564.00
2018-12-03T11:37:11.578Z,5600.00
2018-12-03T11:38:11.820Z,5868.00
2018-12-03T11:40:16.042Z,5516.00
2018-12-03T11:41:16.285Z,4708.00
2018-12-03T11:43:20.479Z,4160.00
2018-12-03T11:44:20.727Z,4260.00
2018-12-03T11:46:24.947Z,5192.00
2018-12-03T11:47:25.190Z,5044.00
2018-12-03T11:49:29.410Z,4136.00
2018-12-03T11:50:29.656Z,3888.00
2018-12-03T11:52:33.842Z,3700.00
2018-12-03T11:53:34.092Z,3852.00
2018-12-03T11:55:38.299Z,5156.00
2018-12-03T11:56:38.543Z,5396.00
2018-12-03T11:58:31.663Z,6136.00
2018-12-03T11:59:31.907Z,7240.00
2018-12-03T12:01:36.120Z,6648.00
2018-12-03T12:02:36.372Z,5284.00
2018-12-03T12:04:40.578Z,3232.00
2018-12-03T12:05:40.824Z,3224.00
2018-12-03T12:07:45.006Z,3992.00
2018-12-03T12:08:45.258Z,4076.00
2018-12-03T12:10:49.473Z,3884.00
2018-12-03T12:11:49.721Z,3344.00
2018-12-03T12:13:53.912Z,2784.00
2018-12-03T12:14:54.155Z,3072.00
2018-12-03T12:16:58.372Z,3788.00
2018-12-03T12:17:58.618Z,3012.00
2018-12-03T12:20:02.907Z,1920.00
2018-12-03T12:21:03.150Z,2052.00
2018-12-03T12:23:07.344Z,2480.00
2018-12-03T12:24:07.588Z,2248.00
2018-12-03T12:26:11.884Z,2004.00
2018-12-03T12:27:12.129Z,2168.00
2018-12-03T12:29:05.845Z,2532.00
2018-12-03T12:30:05.665Z,2632.00
2018-12-03T12:32:09.846Z,2636.00
2018-12-03T12:33:10.136Z,2572.00
2018-12-03T12:35:14.349Z,2736.00
2018-12-03T12:36:14.595Z,2752.00
2018-12-03T12:38:18.823Z,2992.00
2018-12-03T12:39:19.063Z,2960.00
2018-12-03T12:41:23.281Z,2256.00
2018-12-03T12:42:23.523Z,2012.00
2018-12-03T12:44:27.707Z,1504.00
2018-12-03T12:45:27.953Z,1388.00
2018-12-03T12:47:32.177Z,1540.00
2018-12-03T12:48:32.419Z,1872.00
2018-12-03T12:50:36.620Z,3644.00
2018-12-03T12:51:36.866Z,3980.00
2018-12-03T12:53:41.062Z,3412.00
2018-12-03T12:54:41.306Z,3144.00
2018-12-03T12:56:45.544Z,3808.00
2018-12-03T12:57:45.780Z,4360.00
2018-12-03T12:59:49.982Z,3352.00
2018-12-03T13:00:50.231Z,3124.00
2018-12-03T13:02:54.434Z,2384.00
2018-12-03T13:03:54.683Z,1996.00
2018-12-03T13:05:58.899Z,1848.00
2018-12-03T13:06:59.145Z,1716.00
2018-12-03T13:08:52.264Z,1496.00
2018-12-03T13:09:52.510Z,1900.00
2018-12-03T13:11:56.749Z,2140.00
2018-12-03T13:12:56.994Z,1940.00
2018-12-03T13:15:01.203Z,2280.00
2018-12-03T13:16:01.450Z,2540.00
2018-12-03T13:18:05.666Z,3060.00
2018-12-03T13:19:05.907Z,3356.00
2018-12-03T13:21:10.135Z,4844.00
2018-12-03T13:22:10.378Z,5372.00
2018-12-03T13:24:14.567Z,4340.00
2018-12-03T13:25:14.813Z,3060.00
2018-12-03T13:27:19.017Z,1852.00
2018-12-03T13:28:19.258Z,2188.00
2018-12-03T13:30:23.484Z,2080.00
2018-12-03T13:31:23.723Z,1744.00
2018-12-03T13:33:27.910Z,1244.00
2018-12-03T13:34:28.152Z,1304.00
2018-12-03T13:36:32.366Z,1728.00
2018-12-03T13:37:32.687Z,2076.00
2018-12-03T13:39:37.461Z,3176.00
2018-12-03T13:40:37.821Z,3096.00
2018-12-03T13:42:42.644Z,3088.00
2018-12-03T13:43:42.840Z,3660.00
2018-12-03T13:45:47.587Z,8444.00
2018-12-03T13:46:47.797Z,7552.00
2018-12-03T13:48:40.897Z,9712.00
2018-12-03T13:49:41.137Z,19648.00
2018-12-03T13:51:45.847Z,14136.00
2018-12-03T13:52:46.081Z,11092.00
2018-12-03T13:54:50.268Z,6728.00
2018-12-03T13:55:50.511Z,5332.00
2018-12-03T13:57:54.743Z,2492.00
2018-12-03T13:58:54.988Z,2124.00
2018-12-03T14:00:59.707Z,1900.00
2018-12-03T14:02:00.075Z,1580.00
2018-12-03T14:04:05.379Z,1412.00
2018-12-03T14:05:05.622Z,1424.00
2018-12-03T14:07:10.380Z,1544.00
2018-12-03T14:08:10.657Z,1728.00
2018-12-03T14:10:15.432Z,1804.00
2018-12-03T14:11:15.747Z,1672.00
2018-12-03T14:13:20.119Z,1760.00
2018-12-03T14:14:20.525Z,2044.00
2018-12-03T14:16:24.646Z,2020.00
2018-12-03T14:17:24.849Z,1848.00
2018-12-03T14:19:29.071Z,1672.00
2018-12-03T14:20:29.390Z,1760.00
2018-12-03T14:22:34.288Z,2224.00
2018-12-03T14:23:34.613Z,2468.00
2018-12-03T14:25:39.308Z,2520.00
2018-12-03T14:26:39.453Z,2432.00
2018-12-03T14:28:33.254Z,2196.00
2018-12-03T14:29:33.602Z,2048.00
2018-12-03T14:31:39.352Z,1772.00
2018-12-03T14:32:38.987Z,1684.00
2018-12-03T14:34:43.281Z,1532.00
2018-12-03T14:35:43.604Z,1432.00
2018-12-03T14:37:47.858Z,1064.00
2018-12-03T14:38:48.219Z,952.00
2018-12-03T14:40:52.404Z,960.00
2018-12-03T14:41:52.668Z,924.00
2018-12-03T14:43:56.948Z,704.00
2018-12-03T14:44:57.335Z,556.00
2018-12-03T14:47:01.557Z,368.00
2018-12-03T14:48:01.791Z,372.00
2018-12-03T14:50:06.490Z,364.00
2018-12-03T14:51:06.734Z,324.00
2018-12-03T14:53:11.479Z,240.00
2018-12-03T14:54:11.716Z,192.00
2018-12-03T14:56:15.974Z,160.00
2018-12-03T14:57:16.254Z,156.00
2018-12-03T14:59:09.408Z,124.00
2018-12-03T15:00:09.652Z,124.00
2018-12-03T15:02:13.876Z,112.00
2018-12-03T15:03:14.206Z,104.00
2018-12-03T15:05:18.330Z,88.00
2018-12-03T15:06:18.585Z,72.00
2018-12-03T15:08:22.803Z,56.00
2018-12-03T15:09:23.050Z,68.00
2018-12-03T15:11:27.245Z,64.00
2018-12-03T15:12:27.484Z,56.00
2018-12-03T15:14:31.702Z,48.00
2018-12-03T15:15:31.945Z,44.00
2018-12-03T15:17:36.166Z,40.00
2018-12-03T15:18:36.406Z,40.00
2018-12-03T15:20:40.614Z,36.00
2018-12-03T15:21:40.853Z,36.00
2018-12-03T15:23:45.063Z,28.00
2018-12-03T15:24:45.306Z,28.00
2018-12-03T15:26:49.483Z,20.00
2018-12-03T15:27:49.731Z,20.00
2018-12-03T15:29:53.937Z,16.00
2018-12-03T15:30:54.178Z,16.00
2018-12-03T15:32:58.386Z,12.00
2018-12-03T15:33:58.631Z,12.00
2018-12-03T15:36:02.801Z,8.00
2018-12-03T15:37:03.044Z,8.00
2018-12-03T15:38:56.183Z,8.00
2018-12-03T15:39:56.425Z,4.00
2018-12-03T15:42:00.611Z,4.00
2018-12-03T15:43:00.858Z,4.00
2018-12-03T15:45:05.064Z,4.00
2018-12-03T15:46:05.307Z,0.00
2018-12-03T15:48:09.493Z,0.00
2018-12-03T15:49:09.736Z,0.00
2018-12-03T15:51:13.948Z,0.00
2018-12-03T15:52:14.193Z,0.00
2018-12-03T15:54:18.402Z,0.00
2018-12-03T15:55:18.648Z,0.00
2018-12-03T15:57:22.831Z,0.00
2018-12-03T15:58:23.074Z,0.00
2018-12-03T16:00:28.296Z,0.00
2018-12-03T16:01:28.543Z,0.00
2018-12-03T16:03:32.721Z,0.00
2018-12-03T16:04:32.964Z,0.00
2018-12-03T16:06:37.168Z,0.00
2018-12-03T16:07:37.405Z,0.00
2018-12-03T16:09:41.616Z,0.00
2018-12-03T16:10:41.857Z,0.00
2018-12-03T16:12:46.063Z,0.00
2018-12-03T16:13:46.291Z,0.00
2018-12-03T16:15:50.502Z,0.00
2018-12-03T16:16:50.742Z,0.00
2018-12-03T16:18:43.856Z,0.00
2018-12-03T16:19:44.093Z,0.00
2018-12-03T16:21:48.310Z,0.00
2018-12-03T16:22:48.542Z,0.00
2018-12-03T16:24:52.772Z,0.00
2018-12-03T16:25:53.010Z,0.00
2018-12-03T16:27:57.208Z,0.00
2018-12-03T16:28:57.456Z,0.00
2018-12-03T16:31:01.661Z,0.00
2018-12-03T16:32:01.902Z,0.00
2018-12-03T16:34:06.109Z,0.00
2018-12-03T16:35:06.350Z,0.00
2018-12-03T16:37:10.558Z,0.00
2018-12-03T16:38:10.802Z,0.00
2018-12-03T16:40:15.005Z,0.00
2018-12-03T16:41:15.235Z,0.00
2018-12-03T16:43:19.416Z,0.00
2018-12-03T16:44:19.663Z,0.00
2018-12-03T16:46:23.875Z,0.00
2018-12-03T16:47:24.110Z,0.00
2018-12-03T16:49:28.315Z,0.00
2018-12-03T16:50:28.558Z,0.00
2018-12-03T16:52:32.745Z,0.00
2018-12-03T16:53:32.980Z,0.00
2018-12-03T16:55:37.196Z,0.00
2018-12-03T16:56:37.444Z,0.00
2018-12-03T16:58:30.553Z,0.00
2018-12-03T16:59:30.793Z,0.00
2018-12-03T17:01:35.001Z,0.00
2018-12-03T17:02:35.243Z,0.00
2018-12-03T17:04:39.457Z,0.00
2018-12-03T17:05:39.699Z,0.00
2018-12-03T17:07:43.894Z,0.00
2018-12-03T17:08:44.138Z,0.00
2018-12-03T17:10:48.348Z,0.00
2018-12-03T17:11:48.597Z,0.00
2018-12-03T17:13:52.776Z,0.00
2018-12-03T17:14:53.018Z,0.00
2018-12-03T17:16:57.225Z,0.00
2018-12-03T17:17:57.468Z,0.00
2018-12-03T17:20:01.685Z,0.00
2018-12-03T17:21:01.928Z,0.00
2018-12-03T17:23:06.101Z,0.00
2018-12-03T17:24:06.345Z,0.00
2018-12-03T17:26:10.552Z,0.00
2018-12-03T17:27:10.797Z,0.00
2018-12-03T17:29:03.951Z,0.00
2018-12-03T17:30:04.197Z,0.00
2018-12-03T17:32:08.403Z,0.00
2018-12-03T17:33:08.638Z,0.00
2018-12-03T17:35:12.848Z,0.00
2018-12-03T17:36:13.093Z,0.00
2018-12-03T17:38:17.276Z,0.00
2018-12-03T17:39:17.521Z,0.00
2018-12-03T17:41:21.736Z,0.00
2018-12-03T17:42:21.981Z,0.00
2018-12-03T17:44:26.160Z,0.00
2018-12-03T17:45:26.403Z,0.00
2018-12-03T17:47:30.613Z,0.00
2018-12-03T17:48:30.856Z,0.00
2018-12-03T17:50:35.059Z,0.00
2018-12-03T17:51:35.299Z,0.00
2018-12-03T17:53:39.479Z,0.00
2018-12-03T17:54:39.714Z,0.00
2018-12-03T17:56:43.925Z,0.00
2018-12-03T17:57:44.164Z,0.00
2018-12-03T17:59:48.346Z,0.00
2018-12-03T18:00:48.591Z,0.00
2018-12-03T18:02:52.797Z,0.00
2018-12-03T18:03:53.042Z,0.00
2018-12-03T18:05:57.248Z,0.00
2018-12-03T18:06:57.491Z,0.00
2018-12-03T18:08:50.602Z,0.00
2018-12-03T18:09:50.835Z,0.00
2018-12-03T18:11:55.066Z,0.00
2018-12-03T18:12:55.306Z,0.00
2018-12-03T18:14:59.516Z,0.00
2018-12-03T18:15:59.731Z,0.00
2018-12-03T18:18:03.941Z,0.00
2018-12-03T18:19:04.198Z,0.00
2018-12-03T18:21:08.387Z,0.00
2018-12-03T18:22:08.629Z,0.00
2018-12-03T18:24:12.815Z,0.00
2018-12-03T18:25:13.056Z,0.00
2018-12-03T18:27:17.261Z,0.00
2018-12-03T18:28:17.559Z,0.00
2018-12-03T18:30:21.809Z,0.00
2018-12-03T18:31:22.076Z,0.00
2018-12-03T18:33:26.324Z,0.00
2018-12-03T18:34:26.656Z,0.00
2018-12-03T18:36:30.860Z,0.00
2018-12-03T18:37:31.102Z,0.00
2018-12-03T18:39:35.286Z,0.00
2018-12-03T18:40:35.563Z,0.00
2018-12-03T18:42:39.793Z,0.00
2018-12-03T18:43:40.132Z,0.00
2018-12-03T18:45:44.371Z,0.00
2018-12-03T18:46:44.606Z,0.00
2018-12-03T18:48:37.733Z,0.00
2018-12-03T18:49:37.981Z,0.00
2018-12-03T18:51:42.199Z,0.00
2018-12-03T18:52:42.429Z,0.00
2018-12-03T18:54:46.663Z,0.00
2018-12-03T18:55:47.010Z,0.00
2018-12-03T18:57:51.233Z,0.00
2018-12-03T18:58:51.503Z,0.00
2018-12-03T19:00:55.708Z,0.00
2018-12-03T19:01:56.006Z,0.00
2018-12-03T19:04:00.226Z,0.00
2018-12-03T19:05:00.472Z,0.00
2018-12-03T19:07:04.706Z,0.00
2018-12-03T19:08:04.941Z,0.00
2018-12-03T19:10:09.136Z,0.00
2018-12-03T19:11:09.387Z,0.00
2018-12-03T19:13:13.596Z,0.00
2018-12-03T19:14:13.837Z,0.00
2018-12-03T19:16:18.018Z,0.00
2018-12-03T19:17:18.265Z,0.00
2018-12-03T19:19:11.394Z,0.00
2018-12-03T19:20:11.638Z,0.00
2018-12-03T19:22:16.472Z,0.00
2018-12-03T19:23:16.139Z,0.00
2018-12-03T19:25:20.328Z,0.00
2018-12-03T19:26:20.569Z,0.00
2018-12-03T19:28:24.765Z,0.00
2018-12-03T19:29:25.004Z,0.00
2018-12-03T19:31:29.205Z,0.00
2018-12-03T19:32:29.435Z,0.00
2018-12-03T19:34:33.650Z,0.00